Time;durP1;ratioP1;P1;durP2;ratioP2;P2;SDS_P1;SDS_P2;PMS_P1;PMS_P2;Temp;Humidity;BMP_temperature;BMP_pressure;BME280_temperature;BME280_humidity;BME280_pressure;Samples;Min_cycle;Max_cycle;Signal;HPM_P1;HPM_P2
2022/10/14 00:00:17;;;;;;;19.95;10.85;;;;;;;;;;4920398;28;20070;-77
2022/10/14 00:02:43;;;;;;;17.90;11.05;;;;;;;;;;4935905;28;20043;-76
2022/10/14 00:05:08;;;;;;;17.58;10.82;;;;;;;;;;4933810;28;20134;-77
2022/10/14 00:07:35;;;;;;;18.35;10.65;;;;;;;;;;4938276;28;20038;-77
2022/10/14 00:10:00;;;;;;;18.38;10.98;;;;;;;;;;4953295;28;20048;-77
2022/10/14 00:12:28;;;;;;;17.65;10.70;;;;;;;;;;4942853;28;20049;-77
2022/10/14 00:14:53;;;;;;;17.58;10.85;;;;;;;;;;4924470;28;20499;-77
2022/10/14 00:17:18;;;;;;;19.27;10.98;;;;;;;;;;4920584;28;20050;-77
2022/10/14 00:19:44;;;;;;;17.02;10.07;;;;;;;;;;4925479;28;20111;-77
2022/10/14 00:22:09;;;;;;;15.35;10.30;;;;;;;;;;4919545;28;20102;-77
2022/10/14 00:24:34;;;;;;;18.33;11.40;;;;;;;;;;4922939;28;20039;-77
2022/10/14 00:27:00;;;;;;;18.45;10.73;;;;;;;;;;4951843;28;20395;-77
2022/10/14 00:29:25;;;;;;;17.27;9.85;;;;;;;;;;4936701;28;20047;-77
2022/10/14 00:31:52;;;;;;;19.80;10.98;;;;;;;;;;4966501;28;20042;-77
2022/10/14 00:34:17;;;;;;;16.83;10.82;;;;;;;;;;4919744;28;20039;-77
2022/10/14 00:36:43;;;;;;;21.75;11.13;;;;;;;;;;4936817;28;20529;-77
2022/10/14 00:39:09;;;;;;;17.92;10.93;;;;;;;;;;4925218;28;20087;-77
2022/10/14 00:41:34;;;;;;;18.33;10.98;;;;;;;;;;4959098;28;20368;-77
2022/10/14 00:44:14;;;;;;;16.48;10.00;;;;;;;;;;4935441;28;20066;-77
2022/10/14 00:46:41;;;;;;;19.85;10.27;;;;;;;;;;4934789;28;20472;-78
2022/10/14 00:49:10;;;;;;;17.42;10.50;;;;;;;;;;4953727;28;20406;-78
2022/10/14 00:51:37;;;;;;;18.73;11.68;;;;;;;;;;4933404;28;20200;-78
2022/10/14 00:54:03;;;;;;;17.35;10.75;;;;;;;;;;4920131;28;20035;-78
2022/10/14 00:56:29;;;;;;;17.55;10.50;;;;;;;;;;4928345;28;20082;-77
2022/10/14 00:58:55;;;;;;;17.27;10.77;;;;;;;;;;4965604;28;20459;-77
2022/10/14 01:01:21;;;;;;;17.33;11.27;;;;;;;;;;4925395;28;20140;-77
2022/10/14 01:03:46;;;;;;;16.23;9.88;;;;;;;;;;4967870;28;20039;-77
2022/10/14 01:06:32;;;;;;;16.27;10.65;;;;;;;;;;4936194;28;20664;-77
2022/10/14 01:09:00;;;;;;;17.33;10.43;;;;;;;;;;4935510;28;20118;-77
2022/10/14 01:11:40;;;;;;;16.27;10.00;;;;;;;;;;4944865;28;20036;-77
2022/10/14 01:14:12;;;;;;;16.38;10.60;;;;;;;;;;4940238;28;20463;-78
2022/10/14 01:17:06;;;;;;;18.75;10.82;;;;;;;;;;4922636;28;20044;-78
2022/10/14 01:19:47;;;;;;;15.90;10.15;;;;;;;;;;4931333;28;20040;-77
2022/10/14 01:22:23;;;;;;;18.40;10.60;;;;;;;;;;4969646;28;20066;-78
2022/10/14 01:24:49;;;;;;;20.80;11.23;;;;;;;;;;4939504;28;20043;-77
2022/10/14 01:27:32;;;;;;;18.37;10.90;;;;;;;;;;4938025;28;20046;-77
2022/10/14 01:30:10;;;;;;;17.75;10.55;;;;;;;;;;4937974;28;20294;-77
2022/10/14 01:32:46;;;;;;;16.98;10.15;;;;;;;;;;4938354;28;20491;-77
2022/10/14 01:35:23;;;;;;;16.65;9.95;;;;;;;;;;4923753;28;20526;-78
2022/10/14 01:37:56;;;;;;;15.35;10.05;;;;;;;;;;4962022;28;20055;-78
2022/10/14 01:40:40;;;;;;;20.35;10.27;;;;;;;;;;4921078;28;20044;-78
2022/10/14 01:43:06;;;;;;;18.67;11.40;;;;;;;;;;4945996;28;20070;-78
2022/10/14 01:45:34;;;;;;;18.13;10.90;;;;;;;;;;4939531;28;20059;-78
2022/10/14 01:47:59;;;;;;;16.27;10.25;;;;;;;;;;4962475;28;20039;-78
2022/10/14 01:50:26;;;;;;;18.48;9.88;;;;;;;;;;4926705;28;20040;-78
2022/10/14 01:53:16;;;;;;;19.13;10.73;;;;;;;;;;4930328;28;20558;-78
2022/10/14 01:55:45;;;;;;;16.33;9.80;;;;;;;;;;4935203;28;20651;-78
2022/10/14 01:58:12;;;;;;;16.58;10.20;;;;;;;;;;4938902;28;20488;-78
2022/10/14 02:00:37;;;;;;;17.13;10.05;;;;;;;;;;4923167;28;20099;-78
2022/10/14 02:03:03;;;;;;;16.42;10.38;;;;;;;;;;4936755;28;20031;-78
2022/10/14 02:05:43;;;;;;;17.75;10.80;;;;;;;;;;4935914;28;20175;-78
2022/10/14 02:08:33;;;;;;;16.95;10.20;;;;;;;;;;4952804;28;20035;-78
2022/10/14 02:11:08;;;;;;;17.80;10.30;;;;;;;;;;4938786;28;20043;-78
2022/10/14 02:13:52;;;;;;;17.35;10.73;;;;;;;;;;4927852;28;20178;-77
2022/10/14 02:16:48;;;;;;;16.80;10.40;;;;;;;;;;4943824;28;20573;-77
2022/10/14 02:19:25;;;;;;;17.02;10.10;;;;;;;;;;4912268;28;20090;-77
2022/10/14 02:21:57;;;;;;;17.05;10.75;;;;;;;;;;4936395;28;20526;-77
2022/10/14 02:24:30;;;;;;;18.92;10.40;;;;;;;;;;4929049;28;20384;-77
2022/10/14 02:26:57;;;;;;;17.58;10.57;;;;;;;;;;4949734;28;20039;-78
2022/10/14 02:29:23;;;;;;;16.58;9.98;;;;;;;;;;4927490;28;20483;-77
2022/10/14 02:31:49;;;;;;;17.05;10.68;;;;;;;;;;4959004;28;20042;-77
2022/10/14 02:34:18;;;;;;;18.75;10.60;;;;;;;;;;4938166;28;20036;-77
2022/10/14 02:36:44;;;;;;;18.35;10.18;;;;;;;;;;4967040;28;20500;-78
2022/10/14 02:39:12;;;;;;;18.58;11.00;;;;;;;;;;4937153;28;20035;-77
2022/10/14 02:41:37;;;;;;;17.95;10.85;;;;;;;;;;4950672;28;20199;-77
2022/10/14 02:44:06;;;;;;;18.20;10.50;;;;;;;;;;4920811;28;20089;-78
2022/10/14 02:46:33;;;;;;;16.83;10.20;;;;;;;;;;4922797;28;20086;-77
2022/10/14 02:48:58;;;;;;;18.17;10.30;;;;;;;;;;4920789;28;20396;-78
2022/10/14 02:51:26;;;;;;;17.27;10.05;;;;;;;;;;4922983;28;20031;-77
2022/10/14 02:53:51;;;;;;;16.17;9.93;;;;;;;;;;4923969;28;20099;-77
2022/10/14 02:56:16;;;;;;;16.48;9.70;;;;;;;;;;4927824;28;20494;-77
2022/10/14 02:58:42;;;;;;;17.58;10.40;;;;;;;;;;4934924;28;20102;-77
2022/10/14 03:01:07;;;;;;;18.30;9.75;;;;;;;;;;4936675;28;20047;-78
2022/10/14 03:03:32;;;;;;;18.33;10.57;;;;;;;;;;4965991;28;20046;-78
2022/10/14 03:05:58;;;;;;;17.05;10.02;;;;;;;;;;4917782;28;20078;-77
2022/10/14 03:08:23;;;;;;;16.30;9.82;;;;;;;;;;4936643;28;20479;-77
2022/10/14 03:10:48;;;;;;;15.15;9.43;;;;;;;;;;4928476;28;20039;-77
2022/10/14 03:13:14;;;;;;;17.92;10.40;;;;;;;;;;4966098;28;20086;-77
2022/10/14 03:15:40;;;;;;;16.77;10.27;;;;;;;;;;4922491;28;20368;-77
2022/10/14 03:18:05;;;;;;;19.13;11.00;;;;;;;;;;4937542;28;20423;-77
2022/10/14 03:20:30;;;;;;;18.52;10.65;;;;;;;;;;4936738;28;20741;-77
2022/10/14 03:22:56;;;;;;;15.80;10.00;;;;;;;;;;4949892;28;20115;-77
2022/10/14 03:25:22;;;;;;;16.35;9.60;;;;;;;;;;4960367;28;20139;-77
2022/10/14 03:27:47;;;;;;;19.35;10.90;;;;;;;;;;4922896;28;20031;-80
2022/10/14 03:30:13;;;;;;;16.80;10.02;;;;;;;;;;4921634;28;20260;-80
2022/10/14 03:32:39;;;;;;;17.35;10.07;;;;;;;;;;4924719;28;20042;-81
2022/10/14 03:35:04;;;;;;;17.00;9.80;;;;;;;;;;4955254;28;20032;-81
2022/10/14 03:37:30;;;;;;;16.13;9.65;;;;;;;;;;4928581;28;20399;-80
2022/10/14 03:39:55;;;;;;;14.90;9.75;;;;;;;;;;4923426;28;20039;-80
2022/10/14 03:42:20;;;;;;;16.55;9.80;;;;;;;;;;4917841;29;20103;-81
2022/10/14 03:44:46;;;;;;;15.35;9.73;;;;;;;;;;4923990;28;20139;-81
2022/10/14 03:47:11;;;;;;;16.05;9.32;;;;;;;;;;4938331;28;20530;-80
2022/10/14 03:49:36;;;;;;;14.18;8.88;;;;;;;;;;4920148;28;20086;-81
2022/10/14 03:52:02;;;;;;;16.17;10.05;;;;;;;;;;4938642;28;20891;-80
2022/10/14 03:54:27;;;;;;;20.52;10.23;;;;;;;;;;4926571;28;20492;-81
2022/10/14 03:56:53;;;;;;;17.20;9.95;;;;;;;;;;4924899;28;20067;-81
2022/10/14 03:59:18;;;;;;;16.40;10.15;;;;;;;;;;4922762;28;20034;-80
2022/10/14 04:01:44;;;;;;;14.95;9.52;;;;;;;;;;4925234;28;20474;-80
2022/10/14 04:04:09;;;;;;;16.85;10.07;;;;;;;;;;4926847;28;20055;-81
2022/10/14 04:06:35;;;;;;;16.67;9.52;;;;;;;;;;4939511;28;20033;-81
2022/10/14 04:09:00;;;;;;;16.48;9.98;;;;;;;;;;4950007;28;20040;-81
2022/10/14 04:11:26;;;;;;;18.27;9.77;;;;;;;;;;4924364;28;20039;-81
2022/10/14 04:13:51;;;;;;;19.45;10.27;;;;;;;;;;4927844;28;20551;-82
2022/10/14 04:16:16;;;;;;;16.52;9.27;;;;;;;;;;4927200;28;20452;-80
2022/10/14 04:18:42;;;;;;;16.63;10.23;;;;;;;;;;4927633;28;20049;-80
2022/10/14 04:21:10;;;;;;;15.95;9.40;;;;;;;;;;4918611;28;20095;-80
2022/10/14 04:23:36;;;;;;;16.90;10.13;;;;;;;;;;4934997;28;20395;-79
2022/10/14 04:26:04;;;;;;;15.45;9.68;;;;;;;;;;4918376;28;20031;-79
2022/10/14 04:28:29;;;;;;;15.50;9.70;;;;;;;;;;4953058;28;20050;-79
2022/10/14 04:30:55;;;;;;;16.65;9.98;;;;;;;;;;4925965;28;20043;-80
2022/10/14 04:33:20;;;;;;;16.17;10.25;;;;;;;;;;4935091;28;20046;-80
2022/10/14 04:35:45;;;;;;;18.77;10.60;;;;;;;;;;4934469;28;20047;-80
2022/10/14 04:38:11;;;;;;;15.57;9.32;;;;;;;;;;4938581;28;20059;-80
2022/10/14 04:40:36;;;;;;;19.00;11.15;;;;;;;;;;4927322;28;20043;-80
2022/10/14 04:43:01;;;;;;;19.30;10.88;;;;;;;;;;4970307;28;20044;-80
2022/10/14 04:45:27;;;;;;;16.35;9.77;;;;;;;;;;4929867;28;20478;-79
2022/10/14 04:47:53;;;;;;;17.83;10.18;;;;;;;;;;4930739;28;20050;-80
2022/10/14 04:50:18;;;;;;;16.35;10.25;;;;;;;;;;4923268;28;20031;-78
2022/10/14 04:52:44;;;;;;;19.10;10.55;;;;;;;;;;4954201;28;20047;-78
2022/10/14 04:55:10;;;;;;;17.13;10.35;;;;;;;;;;4925113;28;20107;-78
2022/10/14 04:57:35;;;;;;;15.80;10.18;;;;;;;;;;4938306;28;20043;-78
2022/10/14 05:00:02;;;;;;;16.60;10.90;;;;;;;;;;4929664;28;20047;-79
2022/10/14 05:02:27;;;;;;;19.50;10.88;;;;;;;;;;4922146;28;20083;-79
2022/10/14 05:04:53;;;;;;;17.55;10.43;;;;;;;;;;4927538;28;20719;-78
2022/10/14 05:07:18;;;;;;;17.85;11.40;;;;;;;;;;4923327;28;20383;-78
2022/10/14 05:09:44;;;;;;;16.83;10.48;;;;;;;;;;4930735;28;20415;-78
2022/10/14 05:12:09;;;;;;;16.52;10.70;;;;;;;;;;4938307;28;20031;-78
2022/10/14 05:14:34;;;;;;;16.67;10.65;;;;;;;;;;4930908;28;20634;-78
2022/10/14 05:17:02;;;;;;;15.25;9.70;;;;;;;;;;4937347;28;20129;-78
2022/10/14 05:19:28;;;;;;;16.23;10.48;;;;;;;;;;4927864;28;20035;-79
2022/10/14 05:21:53;;;;;;;18.15;10.55;;;;;;;;;;4969410;28;20058;-79
2022/10/14 05:24:18;;;;;;;18.45;9.90;;;;;;;;;;4955190;28;20032;-80
2022/10/14 05:26:44;;;;;;;18.70;10.55;;;;;;;;;;4922357;28;20070;-82
2022/10/14 05:29:10;;;;;;;16.08;10.25;;;;;;;;;;4969519;28;20038;-82
2022/10/14 05:31:36;;;;;;;18.20;10.23;;;;;;;;;;4938465;28;20424;-80
2022/10/14 05:34:01;;;;;;;18.38;10.30;;;;;;;;;;4931235;28;20174;-80
2022/10/14 05:36:32;;;;;;;19.10;9.82;;;;;;;;;;4923781;28;20044;-81
2022/10/14 05:38:57;;;;;;;15.77;10.30;;;;;;;;;;4926068;28;20487;-80
2022/10/14 05:41:24;;;;;;;15.80;10.13;;;;;;;;;;4920795;28;20038;-81
2022/10/14 05:43:49;;;;;;;16.35;10.77;;;;;;;;;;4962103;28;20119;-81
2022/10/14 05:46:15;;;;;;;18.23;10.88;;;;;;;;;;4926703;28;20063;-81
2022/10/14 05:48:40;;;;;;;21.92;11.35;;;;;;;;;;4929151;28;20067;-80
2022/10/14 05:51:05;;;;;;;16.35;10.27;;;;;;;;;;4936524;28;20035;-80
2022/10/14 05:53:31;;;;;;;20.80;10.25;;;;;;;;;;4921306;28;20039;-79
2022/10/14 05:56:01;;;;;;;17.67;10.60;;;;;;;;;;4961371;28;20229;-80
2022/10/14 05:58:26;;;;;;;16.58;9.88;;;;;;;;;;4945492;28;20059;-81
2022/10/14 06:00:52;;;;;;;15.95;9.48;;;;;;;;;;4918483;28;20535;-81
2022/10/14 06:03:17;;;;;;;15.85;9.60;;;;;;;;;;4929443;28;20524;-80
2022/10/14 06:05:44;;;;;;;18.73;10.45;;;;;;;;;;4921083;28;20355;-80
2022/10/14 06:08:09;;;;;;;16.15;11.07;;;;;;;;;;4968911;28;20039;-81
2022/10/14 06:10:34;;;;;;;18.05;10.35;;;;;;;;;;4924065;28;20506;-80
2022/10/14 06:13:00;;;;;;;15.80;9.38;;;;;;;;;;4951043;28;20044;-80
2022/10/14 06:15:27;;;;;;;15.48;9.45;;;;;;;;;;4929415;28;20089;-81
2022/10/14 06:17:52;;;;;;;16.60;9.57;;;;;;;;;;4930419;28;20063;-81
2022/10/14 06:20:17;;;;;;;18.40;10.07;;;;;;;;;;4936729;28;20487;-80
2022/10/14 06:22:44;;;;;;;17.70;10.15;;;;;;;;;;4925621;28;20044;-81
2022/10/14 06:25:09;;;;;;;16.48;10.13;;;;;;;;;;4936944;28;20032;-80
2022/10/14 06:27:35;;;;;;;17.05;10.73;;;;;;;;;;4921157;28;20039;-80
2022/10/14 06:30:00;;;;;;;16.92;10.63;;;;;;;;;;4954271;28;20527;-80
2022/10/14 06:32:25;;;;;;;14.48;9.63;;;;;;;;;;4933329;28;20047;-82
2022/10/14 06:35:11;;;;;;;16.48;9.63;;;;;;;;;;4967560;28;20090;-80
2022/10/14 06:37:37;;;;;;;15.90;9.32;;;;;;;;;;4863075;29;20049;-80
2022/10/14 06:40:02;;;;;;;15.85;9.60;;;;;;;;;;4855358;29;20040;-80
2022/10/14 06:42:28;;;;;;;13.80;9.15;;;;;;;;;;4871306;29;20052;-81
2022/10/14 06:44:53;;;;;;;14.32;9.50;;;;;;;;;;4864329;29;20241;-80
2022/10/14 06:47:19;;;;;;;15.75;10.45;;;;;;;;;;4855563;29;20069;-80
2022/10/14 06:49:44;;;;;;;15.48;9.55;;;;;;;;;;4870816;29;20048;-80
2022/10/14 06:52:09;;;;;;;15.02;9.00;;;;;;;;;;4846832;29;20877;-80
2022/10/14 06:54:35;;;;;;;15.20;9.20;;;;;;;;;;4856313;29;20041;-82
2022/10/14 06:57:00;;;;;;;16.98;9.68;;;;;;;;;;4878269;29;20465;-80
2022/10/14 06:59:27;;;;;;;14.98;9.23;;;;;;;;;;4864977;29;20637;-81
2022/10/14 07:01:53;;;;;;;15.48;9.43;;;;;;;;;;4863114;29;20061;-81
2022/10/14 07:04:19;;;;;;;15.30;9.40;;;;;;;;;;4862102;29;20084;-80
2022/10/14 07:06:44;;;;;;;15.95;10.05;;;;;;;;;;4864288;29;20058;-81
2022/10/14 07:09:09;;;;;;;14.98;9.48;;;;;;;;;;4861721;29;20028;-80
2022/10/14 07:11:35;;;;;;;18.27;9.95;;;;;;;;;;4869373;29;20486;-83
2022/10/14 07:14:01;;;;;;;15.85;10.57;;;;;;;;;;4865058;28;20035;-81
2022/10/14 07:16:27;;;;;;;16.45;9.52;;;;;;;;;;4919474;28;20035;-81
2022/10/14 07:18:52;;;;;;;17.67;9.18;;;;;;;;;;4928854;28;20032;-80
2022/10/14 07:21:17;;;;;;;15.65;9.40;;;;;;;;;;4928203;28;20054;-80
2022/10/14 07:23:43;;;;;;;21.10;10.98;;;;;;;;;;4965375;28;20620;-82
2022/10/14 07:26:08;;;;;;;18.20;10.25;;;;;;;;;;4928579;28;20042;-80
2022/10/14 07:28:34;;;;;;;16.70;9.70;;;;;;;;;;4922430;28;20491;-80
2022/10/14 07:31:01;;;;;;;15.27;9.68;;;;;;;;;;4928213;28;20106;-81
2022/10/14 07:33:27;;;;;;;16.05;9.90;;;;;;;;;;4928205;28;20389;-80
2022/10/14 07:35:52;;;;;;;16.00;10.05;;;;;;;;;;4935461;28;20038;-81
2022/10/14 07:38:18;;;;;;;15.55;9.55;;;;;;;;;;4911770;28;20035;-80
2022/10/14 07:40:43;;;;;;;20.83;11.18;;;;;;;;;;4938046;28;20503;-81
2022/10/14 07:43:08;;;;;;;18.52;9.77;;;;;;;;;;4917727;28;20027;-81
2022/10/14 07:45:35;;;;;;;15.60;9.32;;;;;;;;;;4926897;28;20040;-81
2022/10/14 07:48:01;;;;;;;16.05;9.68;;;;;;;;;;4924916;28;20036;-82
2022/10/14 07:50:26;;;;;;;15.20;9.48;;;;;;;;;;4935137;28;20042;-81
2022/10/14 07:52:51;;;;;;;15.27;9.45;;;;;;;;;;4937105;28;20035;-80
2022/10/14 07:55:17;;;;;;;15.45;10.05;;;;;;;;;;4934843;28;20036;-80
2022/10/14 07:57:42;;;;;;;14.40;9.48;;;;;;;;;;4925629;28;20050;-80
2022/10/14 08:00:08;;;;;;;17.48;9.68;;;;;;;;;;4923627;28;20441;-80
2022/10/14 08:02:34;;;;;;;15.13;9.73;;;;;;;;;;4957640;28;20047;-80
2022/10/14 08:05:00;;;;;;;17.92;10.38;;;;;;;;;;4933016;28;20142;-81
2022/10/14 08:07:25;;;;;;;17.92;9.70;;;;;;;;;;4927334;28;20031;-81
2022/10/14 08:09:52;;;;;;;14.27;9.30;;;;;;;;;;4953968;28;20058;-81
2022/10/14 08:12:18;;;;;;;17.60;9.15;;;;;;;;;;4923580;28;20147;-81
2022/10/14 08:14:44;;;;;;;15.18;9.25;;;;;;;;;;4957694;28;20032;-80
2022/10/14 08:17:10;;;;;;;15.75;9.07;;;;;;;;;;4970229;28;20082;-81
2022/10/14 08:19:38;;;;;;;15.02;8.52;;;;;;;;;;4925597;28;20043;-82
2022/10/14 08:22:24;;;;;;;13.40;8.65;;;;;;;;;;4937872;28;20058;-81
2022/10/14 08:24:49;;;;;;;11.70;7.38;;;;;;;;;;4889356;29;20036;-81
2022/10/14 08:27:15;;;;;;;14.80;8.38;;;;;;;;;;4867620;29;20041;-80
2022/10/14 08:29:40;;;;;;;14.15;8.35;;;;;;;;;;4856766;29;20049;-81
2022/10/14 08:32:05;;;;;;;13.32;8.27;;;;;;;;;;4865739;29;20179;-82
2022/10/14 08:34:31;;;;;;;12.95;8.52;;;;;;;;;;4869152;29;20064;-81
2022/10/14 08:36:56;;;;;;;12.93;8.80;;;;;;;;;;4885739;29;20113;-80
2022/10/14 08:39:22;;;;;;;12.88;8.43;;;;;;;;;;4869704;29;20269;-81
2022/10/14 08:41:57;;;;;;;15.32;9.00;;;;;;;;;;4870645;29;20124;-81
2022/10/14 08:44:25;;;;;;;14.88;8.73;;;;;;;;;;4876398;29;20041;-81
2022/10/14 08:46:56;;;;;;;11.95;7.63;;;;;;;;;;4875295;29;20041;-81
2022/10/14 08:49:28;;;;;;;16.02;8.45;;;;;;;;;;4874905;29;20044;-80
2022/10/14 08:52:05;;;;;;;14.15;9.00;;;;;;;;;;4867824;29;20037;-81
2022/10/14 08:54:50;;;;;;;;;;;;;;;;;;4859662;29;20076;-80
2022/10/14 08:57:18;;;;;;;15.65;8.70;;;;;;;;;;4858598;29;19929;-80
2022/10/14 08:59:43;;;;;;;14.43;8.80;;;;;;;;;;4869684;29;20122;-80
2022/10/14 09:02:21;;;;;;;14.30;8.65;;;;;;;;;;4914616;28;20039;-80
2022/10/14 09:04:46;;;;;;;14.75;8.93;;;;;;;;;;4970562;28;20169;-81
2022/10/14 09:07:16;;;;;;;15.90;8.82;;;;;;;;;;4936925;28;20569;-81
2022/10/14 09:09:44;;;;;;;15.55;9.27;;;;;;;;;;4943963;28;20493;-81
2022/10/14 09:12:15;;;;;;;15.68;9.65;;;;;;;;;;4955819;28;20503;-80
2022/10/14 09:14:46;;;;;;;14.60;8.70;;;;;;;;;;4936842;28;20040;-80
2022/10/14 09:17:26;;;;;;;15.88;9.10;;;;;;;;;;4939486;28;20043;-80
2022/10/14 09:20:07;;;;;;;15.65;9.45;;;;;;;;;;4962009;28;20495;-82
2022/10/14 09:22:33;;;;;;;14.73;9.10;;;;;;;;;;4936994;28;20043;-81
2022/10/14 09:24:59;;;;;;;15.07;9.38;;;;;;;;;;4952958;28;20040;-81
2022/10/14 09:27:27;;;;;;;15.00;9.20;;;;;;;;;;4939587;28;20034;-80
2022/10/14 09:29:56;;;;;;;14.93;9.25;;;;;;;;;;4924473;28;20028;-80
2022/10/14 09:32:54;;;;;;;16.50;9.52;;;;;;;;;;4938501;28;20123;-81
2022/10/14 09:35:32;;;;;;;15.05;8.88;;;;;;;;;;4935890;28;20051;-81
2022/10/14 09:37:58;;;;;;;14.95;9.25;;;;;;;;;;4929058;28;20040;-81
2022/10/14 09:40:38;;;;;;;13.88;8.98;;;;;;;;;;4947311;28;20402;-82
2022/10/14 09:43:09;;;;;;;15.13;8.75;;;;;;;;;;4920541;28;20040;-81
2022/10/14 09:46:06;;;;;;;14.20;8.85;;;;;;;;;;4945040;28;20511;-82
2022/10/14 09:48:47;;;;;;;14.90;8.63;;;;;;;;;;4923083;28;20035;-81
2022/10/14 09:51:21;;;;;;;11.82;8.18;;;;;;;;;;4931998;28;20383;-81
2022/10/14 09:53:50;;;;;;;12.93;8.30;;;;;;;;;;4922574;28;20066;-80
2022/10/14 09:56:26;;;;;;;14.98;8.75;;;;;;;;;;4935301;28;20039;-81
2022/10/14 09:58:55;;;;;;;13.07;8.13;;;;;;;;;;4939199;28;20379;-80
2022/10/14 10:01:22;;;;;;;15.80;8.55;;;;;;;;;;4938198;28;20039;-82
2022/10/14 10:03:49;;;;;;;14.13;8.48;;;;;;;;;;4945663;28;20031;-80
2022/10/14 10:06:21;;;;;;;14.70;8.77;;;;;;;;;;4921708;28;20086;-81
2022/10/14 10:08:59;;;;;;;12.90;7.70;;;;;;;;;;4930459;28;20098;-82
2022/10/14 10:11:38;;;;;;;13.68;8.55;;;;;;;;;;4931555;28;20127;-83
2022/10/14 10:14:20;;;;;;;12.77;8.00;;;;;;;;;;4944769;28;20038;-82
2022/10/14 10:16:46;;;;;;;10.70;6.80;;;;;;;;;;4970146;28;20043;-80
2022/10/14 10:19:30;;;;;;;12.13;7.45;;;;;;;;;;4936937;28;20255;-80
2022/10/14 10:22:30;;;;;;;12.35;6.95;;;;;;;;;;4924521;28;20043;-81
2022/10/14 10:25:02;;;;;;;14.68;8.20;;;;;;;;;;4937955;28;20035;-82
2022/10/14 10:27:35;;;;;;;13.73;7.85;;;;;;;;;;4935321;28;20036;-81
2022/10/14 10:30:19;;;;;;;14.30;7.88;;;;;;;;;;4929713;28;20041;-81
2022/10/14 10:33:13;;;;;;;12.35;7.32;;;;;;;;;;4944043;28;20039;-80
2022/10/14 10:35:50;;;;;;;12.43;7.38;;;;;;;;;;4936290;28;20031;-81
2022/10/14 10:38:34;;;;;;;14.60;7.55;;;;;;;;;;4967991;28;20073;-80
2022/10/14 10:41:22;;;;;;;13.40;7.50;;;;;;;;;;4952371;28;20043;-80
2022/10/14 10:44:09;;;;;;;12.60;7.60;;;;;;;;;;4925873;28;20039;-83
2022/10/14 10:47:08;;;;;;;13.13;7.65;;;;;;;;;;4943456;28;20036;-82
2022/10/14 10:50:11;;;;;;;12.50;7.60;;;;;;;;;;4943451;28;20075;-81
2022/10/14 10:53:21;;;;;;;12.45;7.68;;;;;;;;;;4935277;28;20518;-80
2022/10/14 10:56:08;;;;;;;14.55;7.60;;;;;;;;;;4935220;28;20047;-81
2022/10/14 10:58:41;;;;;;;13.65;7.72;;;;;;;;;;4918581;28;20047;-82
2022/10/14 11:01:09;;;;;;;11.55;6.75;;;;;;;;;;4967782;28;20435;-82
2022/10/14 11:03:40;;;;;;;13.50;7.65;;;;;;;;;;4934468;28;20459;-80
2022/10/14 11:12:01;;;;;;;15.95;7.95;;;;;;;;;;4935700;28;20100;-81
2022/10/14 11:12:11;;;;;;;13.48;8.10;;;;;;;;;;4936966;28;20119;-80
2022/10/14 11:14:55;;;;;;;11.38;6.70;;;;;;;;;;4928376;28;20471;-81
2022/10/14 11:17:21;;;;;;;12.82;7.13;;;;;;;;;;4944153;28;20072;-82
2022/10/14 11:20:13;;;;;;;11.60;7.05;;;;;;;;;;4937408;28;20488;-80
2022/10/14 11:22:57;;;;;;;11.95;7.35;;;;;;;;;;4928450;28;20066;-77
2022/10/14 11:25:45;;;;;;;10.77;6.90;;;;;;;;;;4935907;28;20045;-77
2022/10/14 11:28:16;;;;;;;12.13;7.10;;;;;;;;;;4941300;28;20074;-76
2022/10/14 11:30:57;;;;;;;10.00;6.25;;;;;;;;;;4965020;28;20043;-77
2022/10/14 11:33:41;;;;;;;11.18;5.95;;;;;;;;;;4939562;28;20110;-76
2022/10/14 11:36:42;;;;;;;11.27;6.22;;;;;;;;;;4936520;28;20530;-77
2022/10/14 11:39:28;;;;;;;8.45;5.72;;;;;;;;;;4850556;29;20037;-77
2022/10/14 11:42:20;;;;;;;14.10;6.57;;;;;;;;;;4918181;28;20031;-77
2022/10/14 11:44:48;;;;;;;9.20;5.82;;;;;;;;;;4934826;28;20055;-81
2022/10/14 11:47:23;;;;;;;11.65;6.50;;;;;;;;;;4936128;28;20032;-80
2022/10/14 11:50:10;;;;;;;10.75;6.43;;;;;;;;;;4938218;28;20062;-81
2022/10/14 11:52:45;;;;;;;8.18;5.47;;;;;;;;;;4917824;28;20511;-79
2022/10/14 11:55:16;;;;;;;10.48;5.72;;;;;;;;;;4966792;28;20043;-80
2022/10/14 11:57:58;;;;;;;8.15;5.28;;;;;;;;;;4927745;28;20485;-80
2022/10/14 12:00:26;;;;;;;9.07;5.18;;;;;;;;;;4926421;28;20510;-81
2022/10/14 12:03:04;;;;;;;9.15;5.80;;;;;;;;;;4922590;29;20069;-81
2022/10/14 12:05:35;;;;;;;;;;;;;;;;;;4936331;28;20351;-79
2022/10/14 12:08:21;;;;;;;8.98;5.30;;;;;;;;;;4925924;28;19919;-90
2022/10/14 12:10:50;;;;;;;8.23;5.05;;;;;;;;;;4944204;28;20498;-89
2022/10/14 12:13:19;;;;;;;9.30;5.32;;;;;;;;;;4935820;28;20498;-88
2022/10/14 12:16:09;;;;;;;9.55;5.60;;;;;;;;;;4927748;28;20031;-88
2022/10/14 12:18:35;;;;;;;8.48;5.25;;;;;;;;;;4891081;29;20582;-86
2022/10/14 12:21:14;;;;;;;8.80;5.10;;;;;;;;;;4906571;29;20067;-87
2022/10/14 12:23:47;;;;;;;8.10;5.03;;;;;;;;;;4890433;29;20044;-87
2022/10/14 12:26:33;;;;;;;9.00;4.80;;;;;;;;;;4890295;29;20070;-87
2022/10/14 12:29:00;;;;;;;8.77;5.20;;;;;;;;;;4922824;29;20064;-86
2022/10/14 12:31:37;;;;;;;7.65;4.57;;;;;;;;;;4890594;29;20430;-79
2022/10/14 12:34:14;;;;;;;7.60;4.35;;;;;;;;;;4890267;29;20040;-79
2022/10/14 12:36:42;;;;;;;8.43;4.78;;;;;;;;;;4890121;29;20516;-79
2022/10/14 12:39:16;;;;;;;;;;;;;;;;;;4906494;29;20518;-78
2022/10/14 12:41:49;;;;;;;7.00;4.50;;;;;;;;;;4908709;29;19919;-82
2022/10/14 12:44:17;;;;;;;7.80;4.18;;;;;;;;;;4891850;29;20044;-81
2022/10/14 12:46:44;;;;;;;6.57;4.05;;;;;;;;;;4877706;29;20044;-81
2022/10/14 12:49:17;;;;;;;5.32;3.47;;;;;;;;;;4875064;29;20036;-81
2022/10/14 12:52:01;;;;;;;6.82;3.80;;;;;;;;;;4889373;29;20071;-81
2022/10/14 12:54:27;;;;;;;6.30;3.80;;;;;;;;;;4875556;28;20542;-81
2022/10/14 12:56:56;;;;;;;6.90;4.05;;;;;;;;;;4955553;28;20060;-80
2022/10/14 12:59:30;;;;;;;5.82;3.45;;;;;;;;;;4953469;28;20450;-81
2022/10/14 13:01:58;;;;;;;8.45;3.65;;;;;;;;;;4932181;28;20594;-81
2022/10/14 13:04:24;;;;;;;6.13;3.60;;;;;;;;;;4936029;28;20051;-79
2022/10/14 13:07:12;;;;;;;6.50;4.07;;;;;;;;;;4930781;28;20050;-79
2022/10/14 13:09:37;;;;;;;8.05;4.22;;;;;;;;;;4939959;28;20111;-78
2022/10/14 13:12:05;;;;;;;8.90;4.20;;;;;;;;;;4970060;28;20032;-77
2022/10/14 13:14:57;;;;;;;6.85;3.47;;;;;;;;;;4940207;28;20626;-78
2022/10/14 13:17:41;;;;;;;7.18;4.28;;;;;;;;;;4968150;28;20047;-79
2022/10/14 13:20:44;;;;;;;6.53;3.60;;;;;;;;;;4945956;28;20403;-78
2022/10/14 13:23:34;;;;;;;7.25;3.70;;;;;;;;;;4940550;28;20031;-79
2022/10/14 13:26:17;;;;;;;6.47;3.45;;;;;;;;;;4924974;28;20039;-79
2022/10/14 13:29:01;;;;;;;7.85;3.90;;;;;;;;;;4929767;28;20079;-80
2022/10/14 13:31:43;;;;;;;5.85;3.67;;;;;;;;;;4927081;28;20050;-80
2022/10/14 13:34:36;;;;;;;7.15;3.53;;;;;;;;;;4928982;28;20431;-80
2022/10/14 13:37:16;;;;;;;5.20;3.38;;;;;;;;;;4936565;28;20077;-80
2022/10/14 13:39:41;;;;;;;8.18;3.90;;;;;;;;;;4935943;28;20042;-78
2022/10/14 13:42:12;;;;;;;8.05;3.83;;;;;;;;;;4938104;28;20039;-78
2022/10/14 13:44:37;;;;;;;5.35;3.30;;;;;;;;;;4939412;28;20043;-78
2022/10/14 13:47:03;;;;;;;6.70;3.75;;;;;;;;;;4929717;28;20419;-79
2022/10/14 13:49:39;;;;;;;5.93;3.30;;;;;;;;;;4944729;28;20044;-79
2022/10/14 13:52:09;;;;;;;5.47;3.15;;;;;;;;;;4929691;28;20039;-78
2022/10/14 13:54:35;;;;;;;5.88;3.33;;;;;;;;;;4937146;28;20039;-79
2022/10/14 13:57:12;;;;;;;6.82;3.97;;;;;;;;;;4935691;28;20050;-79
2022/10/14 13:59:42;;;;;;;5.85;3.00;;;;;;;;;;4928174;28;20050;-78
2022/10/14 14:02:33;;;;;;;6.30;3.30;;;;;;;;;;4936896;28;20032;-79
2022/10/14 14:04:59;;;;;;;6.15;3.20;;;;;;;;;;4932765;28;20048;-80
2022/10/14 14:07:31;;;;;;;7.18;3.35;;;;;;;;;;4926829;28;20087;-80
2022/10/14 14:10:00;;;;;;;6.80;3.60;;;;;;;;;;4961985;28;20041;-79
2022/10/14 14:12:25;;;;;;;5.47;2.97;;;;;;;;;;4937802;28;20055;-81
2022/10/14 14:14:51;;;;;;;6.55;3.35;;;;;;;;;;4922865;28;20403;-79
2022/10/14 14:17:21;;;;;;;6.75;3.60;;;;;;;;;;4967417;28;20047;-79
2022/10/14 14:19:47;;;;;;;6.05;3.20;;;;;;;;;;4941170;28;20043;-79
2022/10/14 14:22:19;;;;;;;4.68;2.53;;;;;;;;;;4939951;28;20518;-79
2022/10/14 14:24:46;;;;;;;7.82;3.85;;;;;;;;;;4955750;28;20055;-78
2022/10/14 14:27:13;;;;;;;5.45;3.17;;;;;;;;;;4922897;28;20163;-79
2022/10/14 14:29:43;;;;;;;6.15;3.40;;;;;;;;;;4928218;28;20448;-78
2022/10/14 14:32:31;;;;;;;5.18;2.83;;;;;;;;;;4965888;28;20372;-78
2022/10/14 14:34:57;;;;;;;5.05;2.90;;;;;;;;;;4909903;28;20067;-78
2022/10/14 14:37:31;;;;;;;5.60;3.08;;;;;;;;;;4922679;28;20039;-77
2022/10/14 14:39:57;;;;;;;4.70;2.83;;;;;;;;;;4940631;28;20031;-79
2022/10/14 14:42:24;;;;;;;5.30;3.00;;;;;;;;;;4936914;28;20039;-78
2022/10/14 14:44:50;;;;;;;5.20;2.93;;;;;;;;;;4950413;28;20388;-78
2022/10/14 14:47:15;;;;;;;4.50;2.80;;;;;;;;;;4924367;28;20047;-78
2022/10/14 14:49:44;;;;;;;5.28;2.88;;;;;;;;;;4933375;28;20047;-79
2022/10/14 14:52:11;;;;;;;4.63;2.78;;;;;;;;;;4935325;28;20039;-79